Arcata, CA

8:40 PM PST on November 17, 2017 (GMT -0800)
Arcata Hillside | | Change Station
Active Advisory: Frost Advisory

Elev 456 ft 40.87 °N, 124.08 °W | Updated 31 seconds ago

Clear
Clear
42.5 °F
Feels Like 42 °F
N
0.0
Wind Variable Wind from South

Today
High -- | Low -- °F
--% Chance of Precip.
Yesterday
High -- | Low -- °F
Precip. -- in
Pressure 30.31 in
Visibility 9.0 miles
Clouds Clear
Windchill 42 °F
Dew Point 42 °F
Humidity 98%
Rainfall 0.09 in
Snow Depth Not available.
7:06 AM 4:56 PM
Waning Crescent, 0% visible
METAR KACV 180353Z AUTO 00000KT 9SM CLR 04/04 A3029 RMK AO2 SLP263 T00390039
Pressure 30.31 in
Visibility 9.0 miles
Clouds Clear
Windchill 42 °F
Dew Point 42 °F
Humidity 98%
Rainfall 0.09 in
Snow Depth Not available.
7:06 AM 4:56 PM
Waning Crescent, 0% visible
METAR KACV 180353Z AUTO 00000KT 9SM CLR 04/04 A3029 RMK AO2 SLP263 T00390039

Get Your Daily Forecast Email!

Thanks for signing up!

Be on the lookout for a verification email in your inbox.

You'll start receiving severe weather alerts in your inbox..

×

10-Day Weather Forecast

Almanac

Astronomy

Nov. 17, 2017 Rise Set
Actual Time
Civil Twilight
Nautical Twilight
Astronomical Twilight
Moon
Length of Visible Light
Length of Day
Tomorrow will be .
, % of the Moon is Illuminated

Today's Extremes

State Highs State Lows

Community

WunderPhotos

Category 6

Welcome to Category 6. This is the collective home for Weather Underground's featured writeups by Dr. Jeff Masters (right), Bob Henson (left), Chris Burt, and other regular contributors.

Nearby

Air Quality

  Air Quality AQ Index Pollutant
Not available.

Snow Depth

Station Depth Elevation

Earthquake Activity

City Distance Mag. Time & Date
Minimum magnitude displayed is 2.5.

Coastal Water Temperatures

Place Temperature

Stations

Nearby Weather Stations

Station Location Temp. Windchill Dew Point Humidity Wind Precip. Elev Updated Type
                   

Watches & Warnings

Frost Advisory
Issued: 2:22 PM PST Nov. 17, 2017 – National Weather Service

... Frost advisory remains in effect from 3 am to 8 am PST
Saturday...

* low temperatures... lower to middle 30s.

* Locations include... Fort Bragg... Point Arena... Arcata...
Eureka... Fortuna.

* For a detailed view of the hazard area... visit
http://www.Wrh.NOAA.Gov/map